Time;durP1;ratioP1;P1;durP2;ratioP2;P2;SDS_P1;SDS_P2;PMS_P1;PMS_P2;Temp;Humidity;BMP_temperature;BMP_pressure;BME280_temperature;BME280_humidity;BME280_pressure;Samples;Min_cycle;Max_cycle;Signal;HPM_P1;HPM_P2
2023/10/15 00:00:21;;;;;;;1.27;1.27;;;;;;;9.64;79.47;98805.59;4152769;28;20217;-49
2023/10/15 00:02:22;;;;;;;1.80;1.70;;;;;;;9.57;79.63;98804.88;4152168;28;20243;-49
2023/10/15 00:04:24;;;;;;;2.13;1.60;;;;;;;9.62;80.27;98803.09;4154162;28;20213;-48
2023/10/15 00:06:26;;;;;;;1.00;0.95;;;;;;;9.55;80.50;98807.00;4155554;28;20549;-48
2023/10/15 00:08:28;;;;;;;1.02;0.88;;;;;;;9.52;80.73;98802.84;4149224;28;20221;-49
2023/10/15 00:10:34;;;;;;;1.35;0.85;;;;;;;9.47;80.37;98810.06;4157667;28;20208;-49
2023/10/15 00:12:41;;;;;;;0.93;0.93;;;;;;;9.51;80.54;98814.00;4155404;28;20232;-50
2023/10/15 00:14:42;;;;;;;1.40;1.30;;;;;;;9.59;80.36;98808.19;4154789;28;20200;-49
2023/10/15 00:16:45;;;;;;;1.42;1.20;;;;;;;9.62;80.50;98802.25;4151656;28;20208;-49
2023/10/15 00:18:47;;;;;;;1.80;1.70;;;;;;;9.54;80.59;98810.81;4148736;28;20579;-50
2023/10/15 00:20:49;;;;;;;1.15;1.15;;;;;;;9.54;81.22;98810.81;4155138;28;20213;-48
2023/10/15 00:22:51;;;;;;;2.72;2.53;;;;;;;9.47;81.66;98816.38;4155490;28;20757;-50
2023/10/15 00:24:53;;;;;;;4.50;1.25;;;;;;;9.45;81.61;98823.97;4152535;28;20240;-50
2023/10/15 00:26:54;;;;;;;1.88;1.77;;;;;;;9.50;81.77;98815.06;4152851;28;20686;-50
2023/10/15 00:28:57;;;;;;;1.75;1.23;;;;;;;9.61;81.81;98811.53;4151337;28;20213;-50
2023/10/15 00:31:06;;;;;;;14.70;1.60;;;;;;;9.48;81.62;98814.50;4155035;28;20782;-50
2023/10/15 00:33:11;;;;;;;1.60;1.42;;;;;;;9.47;82.15;98815.53;4154443;28;20799;-48
2023/10/15 00:35:19;;;;;;;1.55;1.45;;;;;;;9.46;82.07;98814.72;4156533;28;20674;-49
2023/10/15 00:37:22;;;;;;;1.75;1.65;;;;;;;9.53;81.97;98809.97;4157526;28;20227;-51
2023/10/15 00:39:24;;;;;;;1.00;1.00;;;;;;;9.48;82.08;98814.50;4142449;28;20210;-48
2023/10/15 00:41:29;;;;;;;1.35;1.25;;;;;;;9.53;82.33;98811.88;4155261;28;20647;-50
2023/10/15 00:43:31;;;;;;;1.73;1.13;;;;;;;9.61;82.70;98811.53;4158464;28;20567;-49
2023/10/15 00:45:43;;;;;;;1.15;1.10;;;;;;;9.66;82.29;98803.44;4153028;28;20786;-50
2023/10/15 00:48:02;;;;;;;2.20;0.88;;;;;;;9.66;81.96;98804.28;4154538;28;20560;-49
2023/10/15 00:50:08;;;;;;;4.07;1.40;;;;;;;9.63;82.82;98806.66;4156411;28;20247;-50
2023/10/15 00:52:11;;;;;;;1.00;1.00;;;;;;;9.44;83.56;98799.63;4133383;28;20427;-50
2023/10/15 00:54:16;;;;;;;1.60;1.50;;;;;;;9.37;84.03;98798.91;4154123;28;20212;-51
2023/10/15 00:56:27;;;;;;;0.70;0.70;;;;;;;9.48;83.21;98801.66;4151176;28;20208;-49
2023/10/15 00:58:34;;;;;;;1.00;1.00;;;;;;;9.23;84.18;98797.47;4149640;28;20286;-49
2023/10/15 01:00:47;;;;;;;2.03;1.65;;;;;;;9.06;86.49;98799.19;4151858;28;20254;-49
2023/10/15 01:02:49;;;;;;;1.75;1.63;;;;;;;9.23;85.32;98797.47;4149584;28;20788;-49
2023/10/15 01:05:00;;;;;;;0.80;0.80;;;;;;;9.39;85.28;98797.59;4147686;28;20287;-49
2023/10/15 01:09:40;;;;;;;1.00;1.00;;;;;;;9.38;84.29;98800.56;4138176;28;20326;-50
2023/10/15 01:11:51;;;;;;;1.42;1.33;;;;;;;9.42;84.07;98790.84;4170237;28;20215;-50
2023/10/15 01:13:56;;;;;;;2.85;1.45;;;;;;;9.51;84.33;98792.16;4152112;28;20686;-51
2023/10/15 01:16:03;;;;;;;1.38;1.27;;;;;;;9.53;83.74;98798.19;4155680;28;20205;-49
2023/10/15 01:18:07;;;;;;;1.25;1.15;;;;;;;9.56;84.10;98797.75;4157462;28;20212;-49
2023/10/15 01:20:09;;;;;;;1.63;1.52;;;;;;;9.57;84.19;98799.41;4153525;28;20564;-50
2023/10/15 01:22:17;;;;;;;1.60;1.50;;;;;;;9.57;84.05;98797.53;4154408;28;20398;-48
2023/10/15 01:24:25;;;;;;;1.10;1.10;;;;;;;9.57;84.58;98802.13;4149667;28;20264;-49
2023/10/15 01:26:31;;;;;;;1.63;1.42;;;;;;;9.53;84.52;98800.94;4151396;28;20205;-50
2023/10/15 01:28:36;;;;;;;1.02;0.95;;;;;;;9.52;84.53;98799.28;4165253;28;20265;-49
2023/10/15 01:30:41;;;;;;;1.02;1.00;;;;;;;9.56;84.67;98800.47;4152466;28;20652;-49
2023/10/15 01:32:46;;;;;;;1.35;1.20;;;;;;;9.55;84.77;98798.81;4169787;28;20713;-49
2023/10/15 01:34:52;;;;;;;1.30;1.30;;;;;;;9.52;84.18;98796.53;4150375;28;20217;-50
2023/10/15 01:36:57;;;;;;;1.33;0.98;;;;;;;9.55;84.15;98796.09;4152564;28;20213;-49
2023/10/15 01:39:12;;;;;;;0.93;0.90;;;;;;;9.58;84.36;98787.41;4152975;28;20310;-49
2023/10/15 01:41:19;;;;;;;4.15;1.08;;;;;;;9.59;84.35;98797.25;4151822;28;20219;-50
2023/10/15 01:43:22;;;;;;;0.60;0.60;;;;;;;9.58;84.54;98790.13;4154034;28;20791;-51
2023/10/15 01:45:47;;;;;;;1.23;1.17;;;;;;;9.66;84.56;98792.50;4153461;28;20659;-50
2023/10/15 01:49:56;;;;;;;1.00;1.00;;;;;;;9.67;84.46;98799.66;4154458;28;20212;-50
2023/10/15 01:52:29;;;;;;;1.92;1.83;;;;;;;9.62;84.29;98799.53;4156727;28;20218;-49
2023/10/15 01:54:21;;;;;;;3.80;1.20;;;;;;;9.64;84.40;98800.13;4154741;28;20223;-49
2023/10/15 01:56:23;;;;;;;1.00;1.00;;;;;;;9.67;84.39;98794.19;4149796;28;20566;-49
2023/10/15 01:58:31;;;;;;;1.55;1.35;;;;;;;9.64;84.32;98798.22;4150880;28;20774;-50
2023/10/15 02:00:43;;;;;;;2.63;1.50;;;;;;;9.65;84.19;98799.88;4154522;28;20725;-50
2023/10/15 02:02:48;;;;;;;0.90;0.90;;;;;;;9.70;83.99;98802.75;4149718;28;20228;-50
2023/10/15 02:04:50;;;;;;;0.93;0.93;;;;;;;9.79;83.73;98803.19;4152973;28;20213;-49
2023/10/15 02:06:53;;;;;;;0.95;0.95;;;;;;;9.65;84.23;98801.78;4153509;28;20744;-49
2023/10/15 02:08:56;;;;;;;0.90;0.90;;;;;;;9.61;84.13;98800.59;4150709;28;20217;-49
2023/10/15 02:11:02;;;;;;;1.23;1.08;;;;;;;9.63;84.90;98803.91;4153439;28;20224;-50
2023/10/15 02:13:04;;;;;;;1.73;1.63;;;;;;;9.62;84.78;98796.81;4153972;28;20228;-49
2023/10/15 02:15:14;;;;;;;1.20;1.10;;;;;;;9.65;85.40;98797.16;4146752;28;20200;-50
2023/10/15 02:17:18;;;;;;;2.00;1.40;;;;;;;9.59;85.11;98792.63;4152748;28;20242;-48
2023/10/15 02:21:52;;;;;;;0.95;0.95;;;;;;;9.73;84.70;98793.22;4146216;28;20205;-49
2023/10/15 02:24:02;;;;;;;1.10;1.00;;;;;;;9.61;85.20;98800.59;4150455;28;20764;-50
2023/10/15 02:26:04;;;;;;;6.97;1.40;;;;;;;9.72;85.20;98786.09;4152546;28;20199;-50
2023/10/15 02:28:09;;;;;;;1.63;1.10;;;;;;;9.66;85.19;98792.50;4156825;28;20263;-51
2023/10/15 02:30:12;;;;;;;1.55;1.45;;;;;;;9.72;84.69;98797.03;4141274;28;20210;-49
2023/10/15 02:34:28;;;;;;;1.30;1.20;;;;;;;9.54;85.65;98783.50;4153089;28;20209;-50
2023/10/15 02:36:31;;;;;;;1.35;1.25;;;;;;;9.54;85.45;98787.03;4169782;28;20215;-50
2023/10/15 02:38:36;;;;;;;1.10;1.00;;;;;;;9.61;85.41;98779.56;4155084;28;20609;-49
2023/10/15 02:40:58;;;;;;;1.08;1.08;;;;;;;9.54;85.16;98787.03;4152483;28;20719;-49
2023/10/15 02:42:59;;;;;;;7.70;0.70;;;;;;;9.47;85.21;98782.75;4151899;28;20378;-50
2023/10/15 02:45:06;;;;;;;1.45;1.35;;;;;;;9.42;84.88;98791.66;4149058;28;20209;-49
2023/10/15 02:49:48;;;;;;;1.42;1.40;;;;;;;9.35;85.91;98784.66;4153080;28;20670;-49
2023/10/15 02:51:52;;;;;;;1.45;0.98;;;;;;;9.31;85.68;98795.22;4153320;28;20236;-48
2023/10/15 02:54:09;;;;;;;1.15;1.13;;;;;;;9.24;85.41;98789.03;4169475;28;20832;-48
2023/10/15 02:56:19;;;;;;;0.93;0.93;;;;;;;9.12;85.26;98795.53;4152103;28;20288;-49
2023/10/15 02:58:27;;;;;;;1.00;1.00;;;;;;;9.09;85.12;98785.09;4135379;28;20209;-48
2023/10/15 03:00:29;;;;;;;3.58;1.38;;;;;;;8.92;85.09;98784.09;4153710;28;20232;-48
2023/10/15 03:02:42;;;;;;;1.17;0.98;;;;;;;8.80;85.62;98786.78;4152907;28;20295;-51
2023/10/15 03:04:50;;;;;;;1.98;1.33;;;;;;;8.71;85.59;98781.88;4152064;28;20664;-51
2023/10/15 03:06:57;;;;;;;0.90;0.90;;;;;;;8.63;85.46;98785.75;4149639;28;20340;-49
2023/10/15 03:08:59;;;;;;;1.38;1.20;;;;;;;8.57;85.25;98785.88;4153772;28;20227;-50
2023/10/15 03:11:12;;;;;;;1.42;1.27;;;;;;;8.67;85.71;98786.13;4150685;28;20257;-49
2023/10/15 03:13:18;;;;;;;1.20;1.10;;;;;;;8.53;85.59;98779.19;4150433;28;20224;-50
2023/10/15 03:15:20;;;;;;;1.10;1.08;;;;;;;8.60;85.43;98788.97;4152152;28;20278;-49
2023/10/15 03:17:25;;;;;;;3.70;1.33;;;;;;;8.57;86.02;98785.88;4150154;28;20254;-49
2023/10/15 03:19:27;;;;;;;1.17;1.10;;;;;;;8.45;86.27;98801.34;4153100;28;20601;-50
2023/10/15 03:21:30;;;;;;;1.60;1.50;;;;;;;8.52;86.25;98791.16;4146290;28;20213;-49
2023/10/15 03:23:32;;;;;;;1.30;0.98;;;;;;;8.47;86.04;98782.84;4155921;28;20334;-50
2023/10/15 03:25:34;;;;;;;1.42;1.35;;;;;;;8.36;86.51;98800.00;4157841;28;20278;-49
2023/10/15 03:27:36;;;;;;;1.15;1.05;;;;;;;8.26;86.25;98788.78;4156572;28;20710;-50
2023/10/15 03:29:38;;;;;;;1.23;1.13;;;;;;;8.36;87.07;98789.09;4171327;28;20295;-49
2023/10/15 03:31:48;;;;;;;1.73;1.63;;;;;;;8.37;86.10;98780.69;4154439;28;20213;-50
2023/10/15 03:34:21;;;;;;;1.40;1.33;;;;;;;8.42;86.05;98789.00;4171667;28;20282;-48
2023/10/15 03:36:17;;;;;;;0.93;0.93;;;;;;;8.34;86.79;98802.13;4155221;28;20255;-50
2023/10/15 03:38:23;;;;;;;1.48;1.38;;;;;;;8.30;86.95;98798.19;4154011;28;20209;-49
2023/10/15 03:42:39;;;;;;;1.17;0.98;;;;;;;8.40;87.82;98796.56;4155457;28;20266;-49
2023/10/15 03:44:45;;;;;;;1.75;1.65;;;;;;;8.32;87.43;98793.31;4155459;28;20305;-50
2023/10/15 03:46:47;;;;;;;1.83;1.73;;;;;;;8.40;87.75;98793.84;4155293;28;20209;-49
2023/10/15 03:48:50;;;;;;;2.03;1.70;;;;;;;8.25;88.19;98796.16;4153344;28;20649;-49
2023/10/15 03:50:54;;;;;;;2.33;1.40;;;;;;;8.24;88.50;98796.38;4155667;28;20282;-49
2023/10/15 03:52:56;;;;;;;1.45;1.20;;;;;;;8.24;88.71;98797.22;4153333;28;20669;-50
2023/10/15 03:54:58;;;;;;;1.35;1.30;;;;;;;8.21;88.46;98786.75;4150795;28;20659;-51
2023/10/15 03:57:01;;;;;;;1.23;1.13;;;;;;;8.21;88.22;98796.84;4153616;28;20210;-49
2023/10/15 03:59:03;;;;;;;1.55;1.45;;;;;;;8.16;88.45;98794.72;4156328;28;20331;-50
2023/10/15 04:01:16;;;;;;;1.45;1.13;;;;;;;8.13;89.25;98797.09;4152684;28;20332;-50
2023/10/15 04:03:22;;;;;;;1.58;1.23;;;;;;;8.14;88.36;98796.03;4170135;28;20231;-50
2023/10/15 04:05:33;;;;;;;1.40;1.23;;;;;;;8.01;89.33;98801.66;4138290;28;20300;-49
2023/10/15 04:07:48;;;;;;;0.93;0.93;;;;;;;7.99;89.64;98798.28;4171316;28;20659;-49
2023/10/15 04:09:51;;;;;;;1.63;1.15;;;;;;;8.07;89.22;98803.44;4152361;28;20213;-49
2023/10/15 04:11:52;;;;;;;8.02;1.80;;;;;;;7.98;88.97;98802.94;4151792;28;20209;-50
2023/10/15 04:13:56;;;;;;;2.03;1.35;;;;;;;7.87;88.95;98806.41;4154761;28;20231;-50
2023/10/15 04:15:58;;;;;;;1.90;1.80;;;;;;;7.79;90.94;98808.56;4139122;28;20209;-49
2023/10/15 04:18:00;;;;;;;1.58;1.48;;;;;;;7.78;90.81;98798.75;4155393;28;20694;-50
2023/10/15 04:20:03;;;;;;;1.38;1.27;;;;;;;7.70;90.22;98808.03;4152671;28;20228;-50
2023/10/15 04:22:23;;;;;;;2.53;1.73;;;;;;;7.73;89.93;98809.47;4149627;28;20214;-49
2023/10/15 04:24:36;;;;;;;3.60;1.13;;;;;;;7.78;90.53;98805.03;4154687;28;20204;-50
2023/10/15 04:26:48;;;;;;;1.60;1.50;;;;;;;7.71;90.42;98811.59;4143822;28;20248;-50
2023/10/15 04:28:53;;;;;;;1.27;1.27;;;;;;;7.69;89.76;98808.28;4152522;28;20243;-49
2023/10/15 04:30:56;;;;;;;2.25;1.48;;;;;;;7.73;90.11;98806.75;4149432;28;20209;-49
2023/10/15 04:32:57;;;;;;;9.68;1.30;;;;;;;7.57;89.62;98804.63;4156457;28;20686;-50
2023/10/15 04:35:01;;;;;;;6.38;1.40;;;;;;;7.54;89.63;98800.44;4154133;28;20244;-49
2023/10/15 04:37:10;;;;;;;1.25;1.15;;;;;;;7.59;89.88;98808.78;4155019;28;20200;-50
2023/10/15 04:39:13;;;;;;;6.50;1.80;;;;;;;7.53;88.77;98814.28;4153901;28;20205;-50
2023/10/15 04:41:23;;;;;;;1.60;1.50;;;;;;;7.54;89.26;98815.94;4153245;28;20233;-49
2023/10/15 04:43:26;;;;;;;1.52;1.42;;;;;;;7.49;88.48;98819.34;4153561;28;20232;-50
2023/10/15 04:47:41;;;;;;;2.25;1.63;;;;;;;7.43;88.92;98816.69;4153232;28;20212;-49
2023/10/15 04:49:47;;;;;;;1.05;1.05;;;;;;;7.36;88.91;98815.91;4159159;28;20274;-50
2023/10/15 04:51:49;;;;;;;1.33;1.30;;;;;;;7.36;88.34;98813.19;4151231;28;20201;-49
2023/10/15 04:53:50;;;;;;;1.83;1.50;;;;;;;7.27;88.05;98817.22;4153247;28;20263;-49
2023/10/15 04:55:56;;;;;;;1.75;1.60;;;;;;;7.14;88.13;98815.44;4155450;28;20246;-49
2023/10/15 04:57:58;;;;;;;2.08;1.92;;;;;;;7.10;88.16;98814.22;4154332;28;20323;-50
2023/10/15 05:00:00;;;;;;;1.55;1.45;;;;;;;7.01;88.71;98817.41;4152327;28;20743;-51
2023/10/15 05:02:02;;;;;;;1.30;1.20;;;;;;;6.96;89.06;98823.53;4151788;28;20267;-52
2023/10/15 05:04:04;;;;;;;1.98;1.88;;;;;;;6.93;89.63;98820.41;4137982;28;20281;-50
2023/10/15 05:06:10;;;;;;;1.83;1.73;;;;;;;7.03;89.24;98818.88;4151845;28;20622;-51
2023/10/15 05:08:13;;;;;;;2.17;1.98;;;;;;;7.04;89.79;98814.28;4155826;28;20327;-50
2023/10/15 05:10:15;;;;;;;1.58;1.48;;;;;;;7.00;89.81;98818.47;4157608;28;20216;-50
2023/10/15 05:12:20;;;;;;;1.88;1.77;;;;;;;7.05;89.33;98830.38;4156915;28;20224;-50
2023/10/15 05:14:22;;;;;;;4.03;1.63;;;;;;;7.01;89.41;98828.28;4153303;28;20205;-51
2023/10/15 05:16:24;;;;;;;2.40;1.85;;;;;;;6.94;88.92;98836.53;4154960;28;20271;-51
2023/10/15 05:18:29;;;;;;;1.58;1.48;;;;;;;6.90;89.81;98835.28;4152465;28;20204;-51
2023/10/15 05:20:31;;;;;;;2.83;1.20;;;;;;;6.92;89.61;98832.34;4154690;28;20212;-50
2023/10/15 05:22:33;;;;;;;2.42;2.28;;;;;;;6.95;89.60;98831.94;4141746;28;20268;-50
2023/10/15 05:24:35;;;;;;;1.25;1.25;;;;;;;6.94;89.51;98836.53;4133804;28;20296;-51
2023/10/15 05:26:37;;;;;;;3.63;1.88;;;;;;;7.01;88.99;98836.47;4152614;28;20221;-50
2023/10/15 05:28:38;;;;;;;2.20;2.10;;;;;;;7.10;88.48;98835.16;4134293;28;20234;-50
2023/10/15 05:30:41;;;;;;;2.58;2.40;;;;;;;7.05;88.57;98834.97;4154437;28;20218;-51
2023/10/15 05:32:44;;;;;;;3.33;2.40;;;;;;;6.99;89.94;98833.97;4155026;28;20233;-51
2023/10/15 05:34:46;;;;;;;1.90;1.80;;;;;;;6.92;90.29;98838.63;4152549;28;20287;-50
2023/10/15 05:36:48;;;;;;;2.10;1.35;;;;;;;6.90;90.73;98839.91;4155021;28;20204;-51
2023/10/15 05:38:49;;;;;;;1.27;1.17;;;;;;;6.98;91.23;98842.34;4154396;28;20291;-51
2023/10/15 05:40:57;;;;;;;3.47;1.48;;;;;;;6.92;91.84;98838.63;4151946;28;20641;-51
2023/10/15 05:42:59;;;;;;;1.38;1.33;;;;;;;6.90;91.61;98848.06;4151108;28;20232;-50
2023/10/15 05:45:01;;;;;;;1.80;1.65;;;;;;;6.85;91.04;98851.44;4153597;28;20197;-50
2023/10/15 05:47:02;;;;;;;1.27;1.17;;;;;;;6.89;91.58;98865.44;4154298;28;20216;-51
2023/10/15 05:49:05;;;;;;;1.65;1.55;;;;;;;6.85;91.13;98858.75;4153255;28;20238;-50
2023/10/15 05:51:09;;;;;;;2.92;1.70;;;;;;;6.93;91.45;98862.06;4154402;28;20258;-49
2023/10/15 05:53:11;;;;;;;1.67;1.58;;;;;;;6.95;90.87;98870.00;4152032;28;20232;-51
2023/10/15 05:55:14;;;;;;;1.10;1.10;;;;;;;6.93;91.18;98875.66;4152247;28;20213;-50
2023/10/15 05:57:16;;;;;;;2.17;2.08;;;;;;;6.88;90.67;98877.38;4170057;28;20365;-51
2023/10/15 05:59:18;;;;;;;2.30;2.10;;;;;;;6.82;90.97;98876.34;4154245;28;20209;-50
2023/10/15 06:01:20;;;;;;;0.85;0.85;;;;;;;6.81;90.77;98884.72;4150271;28;20223;-51
2023/10/15 06:03:22;;;;;;;1.58;1.48;;;;;;;6.77;90.49;98878.06;4156054;28;20228;-49
2023/10/15 06:05:24;;;;;;;2.60;2.30;;;;;;;6.78;91.10;98893.31;4155269;28;20213;-50
2023/10/15 06:07:26;;;;;;;1.60;1.55;;;;;;;6.75;91.64;98886.41;4155501;28;20201;-49
2023/10/15 06:09:28;;;;;;;1.00;1.00;;;;;;;6.57;92.86;98883.56;4152815;28;20327;-50
2023/10/15 06:11:30;;;;;;;1.75;1.65;;;;;;;6.56;92.20;98886.53;4166628;28;20308;-50
2023/10/15 06:13:31;;;;;;;1.85;1.35;;;;;;;6.63;92.16;98887.31;4154207;28;20282;-50
2023/10/15 06:15:33;;;;;;;1.50;1.40;;;;;;;6.64;91.94;98886.28;4165722;28;20714;-50
2023/10/15 06:17:35;;;;;;;1.55;1.45;;;;;;;6.64;92.12;98883.56;4152618;28;20272;-50
2023/10/15 06:19:37;;;;;;;6.10;1.90;;;;;;;6.61;92.41;98883.97;4149671;28;20234;-50
2023/10/15 06:21:39;;;;;;;1.88;1.75;;;;;;;6.61;91.86;98886.69;4152907;28;20630;-50
2023/10/15 06:23:41;;;;;;;2.15;1.25;;;;;;;6.61;92.14;98890.25;4147221;28;20232;-51
2023/10/15 06:25:43;;;;;;;0.90;0.90;;;;;;;6.72;92.16;98891.47;4152675;28;20208;-50
2023/10/15 06:27:45;;;;;;;2.47;2.28;;;;;;;6.72;92.98;98891.47;4152913;28;20208;-50
2023/10/15 06:29:47;;;;;;;2.92;1.45;;;;;;;6.77;93.06;98884.31;4136156;28;20271;-51
2023/10/15 06:31:49;;;;;;;1.40;1.30;;;;;;;6.85;92.82;98899.56;4148309;28;20238;-49
2023/10/15 06:33:50;;;;;;;2.25;1.77;;;;;;;6.89;93.00;98887.19;4145857;28;20855;-51
2023/10/15 06:35:52;;;;;;;1.58;1.48;;;;;;;6.93;93.14;98894.69;4154407;28;20262;-51
2023/10/15 06:37:55;;;;;;;0.90;0.90;;;;;;;6.97;93.35;98897.81;4154054;28;20223;-50
2023/10/15 06:39:58;;;;;;;3.28;1.73;;;;;;;6.94;93.11;98890.06;4169293;28;20208;-50
2023/10/15 06:42:15;;;;;;;3.85;1.40;;;;;;;6.96;93.48;98893.44;4139060;28;20229;-50
2023/10/15 06:44:17;;;;;;;1.17;1.02;;;;;;;6.97;93.77;98897.81;4158794;28;20213;-50
2023/10/15 06:46:19;;;;;;;1.45;1.35;;;;;;;7.00;93.77;98897.38;4152450;28;20209;-49
2023/10/15 06:48:24;;;;;;;1.15;0.93;;;;;;;7.05;94.07;98905.72;4151502;28;20396;-50
2023/10/15 06:50:25;;;;;;;2.13;1.20;;;;;;;7.18;94.12;98902.91;4153243;28;20359;-49
2023/10/15 06:52:29;;;;;;;1.80;1.70;;;;;;;7.18;94.60;98897.47;4157413;28;20235;-50
2023/10/15 06:54:31;;;;;;;6.60;1.50;;;;;;;7.23;96.21;98903.91;4157366;28;20217;-51
2023/10/15 06:56:34;;;;;;;1.85;1.75;;;;;;;7.26;95.63;98916.25;4157654;28;20247;-51
2023/10/15 06:58:36;;;;;;;1.77;1.63;;;;;;;7.24;96.98;98902.03;4162691;28;20208;-50
2023/10/15 07:00:38;;;;;;;1.50;1.40;;;;;;;7.29;97.82;98910.41;4144343;28;20244;-50
2023/10/15 07:02:40;;;;;;;2.00;1.85;;;;;;;7.39;97.72;98910.72;4156697;28;20653;-50
2023/10/15 07:04:41;;;;;;;1.75;1.25;;;;;;;7.44;97.66;98910.91;4156257;28;20296;-50
2023/10/15 07:06:43;;;;;;;3.47;1.65;;;;;;;7.44;98.22;98913.63;4169382;28;20208;-51
2023/10/15 07:08:45;;;;;;;1.92;1.13;;;;;;;7.34;100.00;98913.28;4157381;28;20228;-49
2023/10/15 07:10:48;;;;;;;2.03;1.92;;;;;;;7.43;100.00;98917.41;4156727;28;20698;-50
2023/10/15 07:12:50;;;;;;;1.30;1.23;;;;;;;7.57;99.92;98925.25;4155859;28;20282;-49
2023/10/15 07:14:52;;;;;;;1.88;1.70;;;;;;;7.57;100.00;98930.69;4151518;28;20477;-51
2023/10/15 07:16:54;;;;;;;2.08;1.45;;;;;;;7.69;100.00;98933.56;4150121;28;20210;-51
2023/10/15 07:18:59;;;;;;;2.22;1.27;;;;;;;8.00;100.00;98926.16;4153546;28;20228;-50
2023/10/15 07:21:01;;;;;;;1.95;1.85;;;;;;;8.06;99.91;98925.25;4149805;28;20777;-49
2023/10/15 07:23:03;;;;;;;1.77;1.67;;;;;;;8.44;97.93;98933.28;4168287;28;20231;-50
2023/10/15 07:25:08;;;;;;;1.38;1.00;;;;;;;8.83;96.87;98920.00;4148715;28;20236;-49
2023/10/15 07:27:10;;;;;;;1.77;1.67;;;;;;;8.91;96.32;98921.59;4155265;28;20259;-51
2023/10/15 07:29:12;;;;;;;4.78;1.10;;;;;;;8.99;94.66;98921.28;4156182;28;20310;-50
2023/10/15 07:31:14;;;;;;;2.17;1.20;;;;;;;9.34;95.17;98925.03;4154840;28;20270;-50
2023/10/15 07:33:15;;;;;;;0.80;0.80;;;;;;;9.80;91.68;98934.16;4169768;28;20232;-50
2023/10/15 07:35:17;;;;;;;1.67;1.58;;;;;;;9.82;90.92;98936.66;4154200;28;20212;-51
2023/10/15 07:37:23;;;;;;;5.93;1.13;;;;;;;10.28;90.66;98939.47;4154266;28;20232;-51
2023/10/15 07:39:25;;;;;;;2.00;1.85;;;;;;;10.68;86.85;98945.88;4169054;28;20211;-51
2023/10/15 07:41:28;;;;;;;2.78;1.25;;;;;;;10.82;86.15;98936.31;4135723;28;20268;-50
2023/10/15 07:43:30;;;;;;;1.02;0.93;;;;;;;10.89;83.90;98940.56;4152172;28;20251;-51
2023/10/15 07:45:32;;;;;;;0.70;0.70;;;;;;;10.49;84.12;98947.06;4155537;28;20244;-50
2023/10/15 07:47:37;;;;;;;1.25;1.15;;;;;;;10.22;84.85;98951.38;4153673;28;20204;-51
2023/10/15 07:49:39;;;;;;;1.60;0.93;;;;;;;10.35;87.26;98945.66;4152761;28;20661;-50
2023/10/15 07:51:41;;;;;;;1.05;0.90;;;;;;;10.15;85.72;98945.19;4155722;28;20263;-50
2023/10/15 07:53:46;;;;;;;0.77;0.77;;;;;;;10.29;86.28;98949.34;4151851;28;20225;-50
2023/10/15 07:55:49;;;;;;;1.27;1.17;;;;;;;10.43;86.40;98948.03;4153628;28;20216;-49
2023/10/15 07:57:51;;;;;;;0.70;0.70;;;;;;;10.93;84.50;98944.50;4169530;28;20207;-49
2023/10/15 07:59:58;;;;;;;0.75;0.75;;;;;;;10.96;84.29;98944.84;4168197;28;20654;-50
2023/10/15 08:01:59;;;;;;;1.13;1.02;;;;;;;11.23;81.64;98939.66;4153868;28;20613;-49
2023/10/15 08:04:02;;;;;;;1.85;1.05;;;;;;;11.57;78.83;98931.28;4139619;28;20213;-51
2023/10/15 08:06:07;;;;;;;0.98;0.98;;;;;;;11.70;77.21;98947.44;4135142;28;20288;-50
2023/10/15 08:08:09;;;;;;;0.82;0.82;;;;;;;11.81;79.42;98949.31;4101390;28;20297;-49
2023/10/15 08:10:11;;;;;;;0.82;0.80;;;;;;;12.36;76.00;98946.66;4115700;28;20229;-49
2023/10/15 08:12:13;;;;;;;0.95;0.95;;;;;;;12.35;73.64;98951.31;4118127;28;20237;-49
2023/10/15 08:14:15;;;;;;;0.90;0.85;;;;;;;13.05;73.26;98955.09;4117182;28;20210;-49
2023/10/15 08:16:18;;;;;;;1.15;1.10;;;;;;;13.09;70.04;98963.69;4103107;28;20265;-49
2023/10/15 08:18:20;;;;;;;1.38;0.80;;;;;;;13.15;70.87;98960.72;4131724;28;20206;-49
2023/10/15 08:20:22;;;;;;;0.90;0.90;;;;;;;11.90;71.71;98964.25;4100144;28;20616;-49
2023/10/15 08:22:25;;;;;;;4.32;0.90;;;;;;;12.77;71.89;98960.72;4104293;28;20235;-50
2023/10/15 08:24:27;;;;;;;0.82;0.75;;;;;;;13.31;71.21;98959.81;4118214;28;21837;-49
2023/10/15 08:26:29;;;;;;;1.27;1.17;;;;;;;13.19;69.24;98959.13;4110931;28;20273;-49
2023/10/15 08:28:30;;;;;;;4.13;1.00;;;;;;;13.73;66.56;98960.84;4103158;28;20211;-50
2023/10/15 08:30:32;;;;;;;1.67;1.02;;;;;;;14.14;66.86;98973.91;4120124;28;20643;-49
2023/10/15 08:32:35;;;;;;;1.15;0.93;;;;;;;13.85;67.13;98974.44;4114704;28;20270;-51
2023/10/15 08:34:37;;;;;;;2.60;1.83;;;;;;;14.56;65.44;98977.59;4102864;28;20218;-50
2023/10/15 08:36:39;;;;;;;1.48;1.27;;;;;;;14.24;63.11;98974.00;4101100;28;20211;-49
2023/10/15 08:38:40;;;;;;;0.88;0.70;;;;;;;14.33;64.06;98983.47;4102212;28;20215;-50
2023/10/15 08:40:45;;;;;;;0.63;0.60;;;;;;;14.70;63.28;98987.03;4102993;28;20214;-49
2023/10/15 08:42:51;;;;;;;0.80;0.80;;;;;;;14.05;64.16;98975.50;4118560;28;20707;-50
2023/10/15 08:44:58;;;;;;;0.82;0.60;;;;;;;14.25;63.13;98970.19;4117115;28;20210;-50
2023/10/15 08:47:01;;;;;;;2.58;1.35;;;;;;;13.82;64.83;98969.44;4119995;28;20669;-50
2023/10/15 08:49:07;;;;;;;0.60;0.60;;;;;;;14.23;63.65;98979.81;4118124;28;20663;-49
2023/10/15 08:51:09;;;;;;;0.68;0.68;;;;;;;13.94;64.31;98973.72;4117627;28;20226;-49
2023/10/15 08:53:12;;;;;;;0.85;0.85;;;;;;;14.20;65.38;98972.91;4100194;28;20281;-49
2023/10/15 08:55:14;;;;;;;2.50;1.00;;;;;;;14.82;62.91;98987.69;4117338;28;20352;-49
2023/10/15 08:57:21;;;;;;;0.50;0.50;;;;;;;15.16;60.74;98991.75;4134411;28;20218;-49
2023/10/15 08:59:23;;;;;;;1.00;0.93;;;;;;;14.65;61.25;98988.94;4103563;28;20210;-49
2023/10/15 09:01:28;;;;;;;0.75;0.75;;;;;;;13.71;62.82;98981.44;4102610;28;20750;-49
2023/10/15 09:03:31;;;;;;;0.60;0.60;;;;;;;14.14;63.85;98978.56;4131806;28;20379;-49
2023/10/15 09:05:33;;;;;;;2.00;1.02;;;;;;;14.75;61.92;98987.09;4118148;28;20229;-50
2023/10/15 09:07:36;;;;;;;0.63;0.50;;;;;;;15.22;60.79;98979.66;4134896;28;20240;-49
2023/10/15 09:09:38;;;;;;;0.32;0.32;;;;;;;15.29;59.98;98977.47;4133678;28;20240;-49
2023/10/15 09:11:42;;;;;;;0.82;0.80;;;;;;;15.05;59.30;98976.25;4102022;28;20310;-50
2023/10/15 09:13:54;;;;;;;0.93;0.50;;;;;;;15.47;59.61;98978.94;4099151;28;20227;-51
2023/10/15 09:15:56;;;;;;;3.50;0.65;;;;;;;15.32;59.55;98976.13;4104040;28;20219;-49
2023/10/15 09:17:59;;;;;;;1.45;0.60;;;;;;;14.21;61.59;98974.56;4101507;28;20306;-49
2023/10/15 09:20:01;;;;;;;0.45;0.45;;;;;;;13.68;62.12;98973.69;4134866;28;20235;-49
2023/10/15 09:22:05;;;;;;;2.28;0.70;;;;;;;13.45;63.20;98980.34;4117224;28;20718;-50
2023/10/15 09:24:07;;;;;;;0.80;0.52;;;;;;;13.30;64.71;98982.06;4087590;28;20728;-50
2023/10/15 09:26:10;;;;;;;0.77;0.75;;;;;;;13.35;64.73;98973.88;4102628;28;20221;-50
2023/10/15 09:28:12;;;;;;;1.10;0.65;;;;;;;13.10;65.46;98976.31;4133409;28;20248;-49
2023/10/15 09:30:18;;;;;;;0.50;0.50;;;;;;;13.64;63.45;98972.56;4099980;28;20215;-48
2023/10/15 09:32:24;;;;;;;0.73;0.73;;;;;;;13.46;62.16;98975.66;4103114;28;20570;-50
2023/10/15 09:34:26;;;;;;;0.88;0.88;;;;;;;13.60;61.18;98972.25;4136562;28;20212;-49
2023/10/15 09:36:35;;;;;;;0.65;0.65;;;;;;;14.00;60.35;98977.34;4137266;28;20213;-49
2023/10/15 09:38:37;;;;;;;3.40;0.80;;;;;;;13.63;59.88;98971.72;4117602;28;20221;-50
2023/10/15 09:40:39;;;;;;;0.50;0.50;;;;;;;13.82;60.07;98974.94;4101331;28;20743;-49
2023/10/15 09:42:40;;;;;;;0.60;0.60;;;;;;;13.66;60.11;98976.72;4100565;28;20241;-49
2023/10/15 09:44:42;;;;;;;0.40;0.40;;;;;;;14.19;59.88;98967.66;4116567;28;20788;-49
2023/10/15 09:46:45;;;;;;;0.85;0.82;;;;;;;13.80;58.34;98975.22;4134882;28;20205;-51
2023/10/15 09:48:47;;;;;;;0.40;0.40;;;;;;;13.49;59.06;98969.66;4102403;28;20199;-49
2023/10/15 09:50:52;;;;;;;1.30;0.50;;;;;;;13.18;59.46;98984.13;4132346;28;20233;-48
2023/10/15 09:52:57;;;;;;;3.60;0.40;;;;;;;12.96;59.92;98981.34;4119602;28;20988;-49
2023/10/15 09:54:59;;;;;;;0.45;0.43;;;;;;;12.89;58.74;98980.66;4134475;28;20348;-49
2023/10/15 09:57:05;;;;;;;0.40;0.40;;;;;;;13.00;59.70;98990.75;4103462;28;20222;-50
2023/10/15 09:59:08;;;;;;;0.57;0.57;;;;;;;12.89;59.12;98986.16;4098586;28;20214;-50
2023/10/15 10:01:25;;;;;;;0.50;0.50;;;;;;;12.67;58.78;98993.53;4116380;28;20241;-49
2023/10/15 10:03:47;;;;;;;0.60;0.60;;;;;;;12.83;60.16;98987.16;4117444;28;20279;-49
2023/10/15 10:06:09;;;;;;;0.85;0.85;;;;;;;13.59;59.82;98986.25;4103323;28;20676;-49